Time;durP1;ratioP1;P1;durP2;ratioP2;P2;SDS_P1;SDS_P2;PMS_P1;PMS_P2;Temp;Humidity;BMP_temperature;BMP_pressure;BME280_temperature;BME280_humidity;BME280_pressure;Samples;Min_cycle;Max_cycle;Signal;HPM_P1;HPM_P2
2023/09/30 00:01:00;;;;;;;6.53;1.60;;;;;;;16.17;100.00;101272.72;5028100;28;20057;-58
2023/09/30 00:03:28;;;;;;;5.65;1.10;;;;;;;16.16;100.00;101275.47;5029688;28;20144;-58
2023/09/30 00:05:55;;;;;;;4.50;1.63;;;;;;;16.15;100.00;101277.28;5032100;28;20132;-59
2023/09/30 00:08:23;;;;;;;5.30;1.52;;;;;;;16.07;100.00;101287.59;5026546;28;20458;-59
2023/09/30 00:10:52;;;;;;;5.88;1.45;;;;;;;16.04;100.00;101292.31;5027850;28;20096;-61
2023/09/30 00:13:20;;;;;;;6.05;1.88;;;;;;;16.07;100.00;101298.22;5029916;28;20144;-60
2023/09/30 00:15:48;;;;;;;5.97;1.90;;;;;;;15.99;100.00;101303.25;5026652;28;20159;-58
2023/09/30 00:18:15;;;;;;;7.38;2.20;;;;;;;15.94;100.00;101302.72;5028880;28;20073;-58
2023/09/30 00:20:43;;;;;;;5.03;2.58;;;;;;;15.91;100.00;101310.91;5028229;28;20053;-58
2023/09/30 00:23:10;;;;;;;10.02;2.30;;;;;;;15.82;100.00;101311.56;5033438;28;20057;-60
2023/09/30 00:25:39;;;;;;;6.50;2.30;;;;;;;15.74;100.00;101328.00;5032997;28;20087;-58
2023/09/30 00:28:06;;;;;;;8.20;2.40;;;;;;;15.66;100.00;101331.19;5032140;28;20125;-59
2023/09/30 00:30:33;;;;;;;8.18;2.50;;;;;;;15.60;100.00;101326.28;5025920;28;20045;-56
2023/09/30 00:33:02;;;;;;;13.25;3.20;;;;;;;15.51;98.92;101326.06;5031016;28;20084;-59
2023/09/30 00:35:32;;;;;;;10.18;2.85;;;;;;;15.44;96.99;101334.44;5035520;28;20068;-59
2023/09/30 00:37:59;;;;;;;13.18;3.42;;;;;;;15.37;95.88;101350.88;5027588;28;20127;-60
2023/09/30 00:40:28;;;;;;;9.05;3.20;;;;;;;15.26;96.05;101335.66;5031482;28;20049;-60
2023/09/30 00:42:55;;;;;;;12.05;2.88;;;;;;;15.22;95.50;101343.94;5030806;28;20084;-61
2023/09/30 00:45:22;;;;;;;13.65;3.08;;;;;;;15.15;95.77;101347.00;5031382;28;20108;-60
2023/09/30 00:47:51;;;;;;;13.07;3.42;;;;;;;15.11;96.24;101349.97;5018971;28;20136;-59
2023/09/30 00:50:20;;;;;;;12.05;3.38;;;;;;;15.02;96.87;101343.47;5036842;28;20048;-60
2023/09/30 00:52:48;;;;;;;9.35;3.17;;;;;;;15.00;97.39;101352.50;5026734;28;20136;-61
2023/09/30 00:55:17;;;;;;;10.63;3.08;;;;;;;14.93;98.13;101350.22;5048007;28;20084;-59
2023/09/30 00:57:45;;;;;;;12.00;3.05;;;;;;;14.87;98.44;101355.94;5027796;28;20041;-60
2023/09/30 01:00:12;;;;;;;10.15;3.60;;;;;;;14.86;98.68;101364.84;5026618;28;20057;-61
2023/09/30 01:02:41;;;;;;;10.35;2.80;;;;;;;14.79;98.43;101358.22;5023616;28;20304;-59
2023/09/30 01:05:09;;;;;;;9.43;3.30;;;;;;;14.74;97.66;101351.53;5027530;28;20432;-62
2023/09/30 01:07:37;;;;;;;15.32;3.25;;;;;;;14.69;97.64;101362.44;5033972;28;20064;-60
2023/09/30 01:10:04;;;;;;;10.27;3.10;;;;;;;14.63;97.71;101376.06;5032851;28;20058;-61
2023/09/30 01:12:32;;;;;;;16.77;3.13;;;;;;;14.57;96.38;101379.97;5032414;28;20132;-62
2023/09/30 01:15:00;;;;;;;13.32;3.78;;;;;;;14.53;96.49;101380.25;5031850;28;20050;-61
2023/09/30 01:17:29;;;;;;;16.02;4.55;;;;;;;14.48;96.58;101375.25;5026151;28;20037;-59
2023/09/30 01:19:59;;;;;;;10.23;3.25;;;;;;;14.45;97.17;101380.69;5027429;28;20476;-60
2023/09/30 01:22:28;;;;;;;9.15;3.22;;;;;;;14.39;97.26;101387.22;5037206;28;20140;-62
2023/09/30 01:24:55;;;;;;;10.80;3.33;;;;;;;14.36;97.66;101392.75;5025262;28;20046;-63
2023/09/30 01:27:23;;;;;;;10.02;2.90;;;;;;;14.33;98.13;101398.22;5029442;28;20187;-59
2023/09/30 01:29:50;;;;;;;12.23;4.07;;;;;;;14.30;98.46;101401.06;5027879;28;20416;-61
2023/09/30 01:32:17;;;;;;;20.42;3.55;;;;;;;14.26;98.90;101412.78;5030165;28;20147;-60
2023/09/30 01:34:45;;;;;;;13.43;3.42;;;;;;;14.24;99.18;101406.75;5029627;28;20063;-62
2023/09/30 01:37:13;;;;;;;13.70;3.85;;;;;;;14.17;99.88;101411.53;5030798;28;20057;-60
2023/09/30 01:39:41;;;;;;;15.80;4.03;;;;;;;14.15;100.00;101415.25;5030928;28;20068;-60
2023/09/30 01:42:08;;;;;;;11.43;3.08;;;;;;;14.12;100.00;101418.94;5033207;28;20581;-60
2023/09/30 01:44:35;;;;;;;12.25;3.88;;;;;;;14.09;100.00;101418.25;5026029;28;20052;-58
2023/09/30 01:47:02;;;;;;;9.25;2.88;;;;;;;14.07;100.00;101428.09;5028808;28;20084;-61
2023/09/30 01:49:30;;;;;;;15.75;4.25;;;;;;;14.02;100.00;101422.25;5038337;28;20044;-62
2023/09/30 01:51:58;;;;;;;13.80;3.45;;;;;;;13.98;100.00;101432.16;5029388;28;20116;-62
2023/09/30 01:54:25;;;;;;;13.15;3.88;;;;;;;13.93;100.00;101435.06;5028216;28;21306;-58
2023/09/30 01:56:52;;;;;;;11.43;3.33;;;;;;;13.93;100.00;101434.22;5028027;28;20161;-58
2023/09/30 01:59:21;;;;;;;15.93;4.00;;;;;;;13.87;100.00;101429.31;5026212;28;20076;-62
2023/09/30 02:01:49;;;;;;;12.20;3.70;;;;;;;13.84;100.00;101437.44;5030446;28;20523;-60
2023/09/30 02:04:19;;;;;;;10.68;3.45;;;;;;;13.79;100.00;101436.84;5026503;28;20431;-59
2023/09/30 02:06:47;;;;;;;14.57;3.63;;;;;;;13.75;100.00;101444.13;5028339;28;20073;-63
2023/09/30 02:09:14;;;;;;;21.88;4.55;;;;;;;13.71;100.00;101444.38;5032277;28;20111;-58
2023/09/30 02:11:42;;;;;;;17.50;3.78;;;;;;;13.70;100.00;101450.63;5020993;28;20052;-60
2023/09/30 02:14:11;;;;;;;16.20;4.10;;;;;;;13.64;100.00;101450.06;5030258;28;20088;-60
2023/09/30 02:16:38;;;;;;;18.42;4.75;;;;;;;13.63;100.00;101453.63;5033319;28;20149;-60
2023/09/30 02:19:06;;;;;;;17.20;3.85;;;;;;;13.60;100.00;101455.63;5023155;28;20077;-61
2023/09/30 02:21:35;;;;;;;13.52;3.67;;;;;;;13.55;100.00;101458.50;5029440;28;20735;-59
2023/09/30 02:24:03;;;;;;;16.17;4.15;;;;;;;13.51;100.00;101464.06;5033324;28;20140;-59
2023/09/30 02:26:30;;;;;;;15.95;4.60;;;;;;;13.46;100.00;101459.03;5030662;28;20145;-61
2023/09/30 02:28:58;;;;;;;15.07;3.85;;;;;;;13.43;100.00;101446.84;5028889;28;20057;-61
2023/09/30 02:31:25;;;;;;;16.83;4.88;;;;;;;13.42;100.00;101452.25;5030219;28;20089;-61
2023/09/30 02:33:53;;;;;;;9.00;3.75;;;;;;;13.38;100.00;101458.66;5029888;28;20123;-60
2023/09/30 02:36:20;;;;;;;15.63;3.97;;;;;;;13.34;100.00;101470.34;5028668;28;20080;-61
2023/09/30 02:38:48;;;;;;;23.60;4.78;;;;;;;13.30;100.00;101471.44;5029741;28;20562;-60
2023/09/30 02:41:17;;;;;;;16.58;4.20;;;;;;;13.28;100.00;101470.66;5038263;28;20839;-61
2023/09/30 02:43:44;;;;;;;13.15;4.20;;;;;;;13.28;100.00;101475.94;5031278;28;20080;-59
2023/09/30 02:46:12;;;;;;;17.92;4.47;;;;;;;13.26;100.00;101477.84;5034605;28;20055;-61
2023/09/30 02:48:39;;;;;;;13.70;3.90;;;;;;;13.25;100.00;101481.44;5019906;28;20068;-60
2023/09/30 02:51:11;;;;;;;17.33;4.65;;;;;;;13.23;100.00;101486.78;5037936;28;20050;-61
2023/09/30 02:53:38;;;;;;;16.98;4.88;;;;;;;13.22;100.00;101495.66;5031621;28;20073;-59
2023/09/30 02:56:05;;;;;;;12.23;3.78;;;;;;;13.18;100.00;101496.75;5023738;28;20084;-61
2023/09/30 02:58:33;;;;;;;15.55;4.18;;;;;;;13.15;100.00;101497.78;5031294;28;20164;-59
2023/09/30 03:01:00;;;;;;;13.27;4.25;;;;;;;13.17;100.00;101505.63;5029337;28;20148;-61
2023/09/30 03:03:28;;;;;;;13.50;4.50;;;;;;;13.11;100.00;101506.81;5035802;28;20063;-60
2023/09/30 03:05:57;;;;;;;20.15;5.85;;;;;;;13.10;100.00;101502.47;5035805;28;20041;-61
2023/09/30 03:08:25;;;;;;;17.45;4.65;;;;;;;13.08;100.00;101503.50;5034946;28;20069;-60
2023/09/30 03:10:52;;;;;;;27.00;5.28;;;;;;;13.05;100.00;101498.38;5039319;28;20149;-58
2023/09/30 03:13:21;;;;;;;21.45;5.20;;;;;;;13.04;100.00;101513.38;5032873;28;20469;-60
2023/09/30 03:15:49;;;;;;;21.85;4.95;;;;;;;13.03;100.00;101516.97;5033085;28;20080;-61
2023/09/30 03:18:17;;;;;;;20.08;5.38;;;;;;;13.02;100.00;101509.13;5032016;28;20081;-61
2023/09/30 03:20:45;;;;;;;25.15;5.63;;;;;;;13.01;100.00;101510.88;5036366;28;20504;-59
2023/09/30 03:23:14;;;;;;;15.82;5.20;;;;;;;13.01;100.00;101510.03;5037441;28;20053;-62
2023/09/30 03:25:42;;;;;;;17.15;4.22;;;;;;;12.99;100.00;101512.78;5030738;28;20077;-61
2023/09/30 03:28:09;;;;;;;23.90;5.35;;;;;;;12.96;100.00;101518.22;5023146;28;20568;-59
2023/09/30 03:30:37;;;;;;;17.75;5.18;;;;;;;12.94;100.00;101528.03;5036404;28;20060;-59
2023/09/30 03:33:04;;;;;;;16.55;4.72;;;;;;;12.92;100.00;101527.25;5037521;28;20107;-60
2023/09/30 03:35:32;;;;;;;19.65;4.82;;;;;;;12.89;100.00;101524.78;5033751;28;20158;-62
2023/09/30 03:38:01;;;;;;;26.48;5.30;;;;;;;12.85;100.00;101521.47;5039819;28;20064;-60
2023/09/30 03:40:33;;;;;;;19.55;4.70;;;;;;;12.85;100.00;101526.75;5031913;28;20053;-58
2023/09/30 03:43:03;;;;;;;18.92;4.88;;;;;;;12.86;100.00;101519.66;5032037;28;20081;-59
2023/09/30 03:45:32;;;;;;;17.52;5.60;;;;;;;12.86;100.00;101527.59;5034369;28;20049;-62
2023/09/30 03:48:04;;;;;;;19.98;5.10;;;;;;;12.84;100.00;101525.03;5028635;28;20101;-61
2023/09/30 03:50:32;;;;;;;23.80;5.03;;;;;;;12.81;100.00;101533.13;5033957;28;20539;-59
2023/09/30 03:53:07;;;;;;;15.50;5.13;;;;;;;12.83;100.00;101528.63;5038331;28;20087;-62
2023/09/30 03:55:34;;;;;;;17.05;4.55;;;;;;;12.80;100.00;101542.00;5037563;28;20049;-60
2023/09/30 03:58:03;;;;;;;22.13;5.05;;;;;;;12.80;100.00;101533.22;5030445;28;20077;-62
2023/09/30 04:00:31;;;;;;;15.65;5.15;;;;;;;12.82;100.00;101539.25;5026525;28;20728;-60
2023/09/30 04:02:59;;;;;;;21.98;6.18;;;;;;;12.78;100.00;101538.56;5033263;28;20115;-60
2023/09/30 04:05:29;;;;;;;21.30;5.57;;;;;;;12.80;100.00;101549.06;5028480;28;20053;-62
2023/09/30 04:07:57;;;;;;;18.48;5.43;;;;;;;12.76;100.00;101548.38;5033332;28;20770;-61
2023/09/30 04:10:25;;;;;;;18.73;5.20;;;;;;;12.75;100.00;101535.25;5032439;28;20041;-60
2023/09/30 04:12:52;;;;;;;16.20;4.90;;;;;;;12.75;100.00;101545.81;5034347;28;20049;-58
2023/09/30 04:15:20;;;;;;;17.75;4.85;;;;;;;12.75;100.00;101540.53;5029044;28;20173;-61
2023/09/30 04:17:48;;;;;;;19.02;5.20;;;;;;;12.72;100.00;101544.19;5028692;28;20128;-61
2023/09/30 04:20:20;;;;;;;18.27;4.97;;;;;;;12.68;100.00;101556.69;5028982;28;20144;-61
2023/09/30 04:22:48;;;;;;;22.02;5.57;;;;;;;12.64;100.00;101557.78;5019111;28;20054;-60
2023/09/30 04:25:17;;;;;;;22.60;5.38;;;;;;;12.61;100.00;101568.53;5023341;28;20144;-58
2023/09/30 04:27:47;;;;;;;18.55;5.32;;;;;;;12.58;100.00;101565.19;5024770;28;20049;-60
2023/09/30 04:30:18;;;;;;;21.38;6.00;;;;;;;12.55;100.00;101560.91;5033847;28;20073;-60
2023/09/30 04:32:45;;;;;;;26.65;6.03;;;;;;;12.55;100.00;101560.91;5026345;28;20149;-60
2023/09/30 04:35:14;;;;;;;18.63;5.15;;;;;;;12.54;100.00;101564.50;5028619;28;20045;-60
2023/09/30 04:37:43;;;;;;;19.58;5.45;;;;;;;12.51;100.00;101569.94;5026209;28;20046;-61
2023/09/30 04:40:19;;;;;;;18.75;4.75;;;;;;;12.50;100.00;101564.75;5024588;28;20132;-61
2023/09/30 04:42:48;;;;;;;13.05;4.88;;;;;;;12.49;100.00;101561.25;5028351;28;20088;-60
2023/09/30 04:45:16;;;;;;;22.75;5.20;;;;;;;12.47;100.00;101562.25;5034752;28;20056;-60
2023/09/30 04:47:44;;;;;;;18.90;5.40;;;;;;;12.46;100.00;101563.19;5030752;28;20087;-60
2023/09/30 04:50:16;;;;;;;17.02;4.55;;;;;;;12.42;100.00;101563.34;5028778;28;20050;-60
2023/09/30 04:52:45;;;;;;;19.98;5.22;;;;;;;12.41;100.00;101563.44;5037507;28;20052;-60
2023/09/30 04:55:15;;;;;;;17.08;5.03;;;;;;;12.37;100.00;101546.88;5033342;28;20053;-62
2023/09/30 04:57:44;;;;;;;19.20;5.18;;;;;;;12.39;100.00;101552.94;5022689;28;20045;-58
2023/09/30 05:00:18;;;;;;;21.85;5.82;;;;;;;12.36;100.00;101554.88;5038220;28;20050;-60
2023/09/30 05:02:46;;;;;;;20.58;5.95;;;;;;;12.35;100.00;101561.97;5035760;28;20082;-62
2023/09/30 05:05:15;;;;;;;20.17;5.22;;;;;;;12.34;100.00;101572.63;5029144;28;20164;-59
2023/09/30 05:07:43;;;;;;;19.25;4.60;;;;;;;12.33;100.00;101566.44;5036774;28;20064;-60
2023/09/30 05:10:13;;;;;;;20.70;5.53;;;;;;;12.32;100.00;101579.75;5032756;28;20128;-62
2023/09/30 05:12:45;;;;;;;21.63;6.47;;;;;;;12.34;100.00;101575.25;5037015;28;20132;-64
2023/09/30 05:15:15;;;;;;;16.45;4.65;;;;;;;12.33;100.00;101586.72;5032292;28;20530;-59
2023/09/30 05:17:44;;;;;;;21.30;5.90;;;;;;;12.33;100.00;101592.84;5033675;28;20049;-62
2023/09/30 05:20:12;;;;;;;21.60;5.38;;;;;;;12.33;100.00;101590.22;5031370;28;20149;-61
2023/09/30 05:22:45;;;;;;;21.63;5.47;;;;;;;12.33;100.00;101584.09;5034154;28;20132;-60
2023/09/30 05:25:17;;;;;;;17.67;4.80;;;;;;;12.35;100.00;101585.72;5032378;28;20106;-60
2023/09/30 05:27:49;;;;;;;19.65;5.43;;;;;;;12.32;100.00;101585.03;5036925;28;20591;-59
2023/09/30 05:30:17;;;;;;;21.73;5.22;;;;;;;12.34;100.00;101591.09;5024434;28;20179;-62
2023/09/30 05:32:46;;;;;;;20.15;5.70;;;;;;;12.37;100.00;101598.84;5024865;28;20081;-61
2023/09/30 05:35:16;;;;;;;21.38;5.70;;;;;;;12.37;100.00;101604.13;5027801;28;20059;-60
2023/09/30 05:37:45;;;;;;;16.60;4.95;;;;;;;12.45;100.00;101606.38;5035090;28;20060;-60
2023/09/30 05:40:21;;;;;;;25.48;5.40;;;;;;;12.42;100.00;101607.38;5033695;28;20046;-61
2023/09/30 05:42:50;;;;;;;24.02;6.40;;;;;;;12.44;100.00;101621.38;5029007;28;20498;-61
2023/09/30 05:45:17;;;;;;;23.70;5.50;;;;;;;12.53;100.00;101623.53;5032803;28;20051;-60
2023/09/30 05:47:45;;;;;;;21.88;6.70;;;;;;;12.54;100.00;101621.75;5036043;28;20084;-59
2023/09/30 05:50:16;;;;;;;22.35;5.32;;;;;;;12.61;100.00;101626.66;5035395;28;20141;-57
2023/09/30 05:52:46;;;;;;;24.50;5.20;;;;;;;12.73;100.00;101632.22;5034349;28;20045;-58
2023/09/30 05:55:15;;;;;;;18.58;5.70;;;;;;;12.70;100.00;101625.31;5039569;28;20532;-63
2023/09/30 05:57:42;;;;;;;22.77;5.78;;;;;;;12.72;100.00;101635.81;5034580;28;20574;-59
2023/09/30 06:00:14;;;;;;;20.33;5.18;;;;;;;12.78;100.00;101643.41;5025500;28;20100;-56
2023/09/30 06:02:42;;;;;;;17.45;5.47;;;;;;;12.89;100.00;101649.00;5030337;28;20098;-56
2023/09/30 06:05:10;;;;;;;17.88;5.13;;;;;;;12.96;100.00;101653.00;5030110;28;20623;-63
2023/09/30 06:07:38;;;;;;;20.75;5.55;;;;;;;13.04;100.00;101652.63;5031448;28;20079;-60
2023/09/30 06:10:05;;;;;;;18.40;5.00;;;;;;;13.12;100.00;101647.78;5033675;28;20088;-60
2023/09/30 06:12:32;;;;;;;20.95;5.50;;;;;;;13.19;100.00;101643.88;5033193;28;20231;-62
2023/09/30 06:15:02;;;;;;;24.15;5.03;;;;;;;13.21;100.00;101641.16;5026893;28;20121;-60
2023/09/30 06:17:33;;;;;;;21.90;5.20;;;;;;;13.28;100.00;101646.03;5022946;28;20104;-59
2023/09/30 06:20:07;;;;;;;20.88;5.90;;;;;;;13.36;100.00;101661.50;5027623;28;20399;-57
2023/09/30 06:22:34;;;;;;;15.02;4.28;;;;;;;13.46;100.00;101657.41;5024309;28;20423;-61
2023/09/30 06:25:04;;;;;;;22.23;5.20;;;;;;;13.48;100.00;101658.19;5027718;28;20065;-60
2023/09/30 06:27:32;;;;;;;15.25;4.25;;;;;;;13.45;100.00;101658.34;5029428;28;20067;-60
2023/09/30 06:29:59;;;;;;;24.10;5.22;;;;;;;13.36;100.00;101662.34;5032088;28;20062;-60
2023/09/30 06:32:27;;;;;;;20.25;4.80;;;;;;;13.23;100.00;101663.09;5026757;28;20048;-60
2023/09/30 06:34:54;;;;;;;21.00;4.50;;;;;;;13.33;100.00;101675.78;5027748;28;20092;-62
2023/09/30 06:37:21;;;;;;;18.58;5.20;;;;;;;13.30;100.00;101681.22;5029354;28;20539;-59
2023/09/30 06:39:49;;;;;;;20.75;4.85;;;;;;;13.36;100.00;101685.31;5019958;28;20118;-61
2023/09/30 06:42:17;;;;;;;18.90;5.10;;;;;;;13.38;100.00;101688.75;5039721;28;20419;-60
2023/09/30 06:44:44;;;;;;;22.15;5.28;;;;;;;13.40;100.00;101684.22;5041770;28;20132;-61
2023/09/30 06:47:12;;;;;;;21.38;5.35;;;;;;;13.46;100.00;101689.16;5032737;28;20148;-61
2023/09/30 06:49:39;;;;;;;19.02;5.30;;;;;;;13.41;100.00;101680.63;5035017;28;20140;-59
2023/09/30 06:52:07;;;;;;;15.65;4.25;;;;;;;13.47;100.00;101688.25;5032846;28;20132;-58
2023/09/30 06:54:34;;;;;;;19.70;4.80;;;;;;;13.51;100.00;101700.38;5029219;28;20084;-59
2023/09/30 06:57:02;;;;;;;16.35;4.90;;;;;;;13.54;100.00;101700.19;5025490;28;20209;-60
2023/09/30 06:59:30;;;;;;;23.98;4.65;;;;;;;13.60;100.00;101699.03;5038040;28;20053;-58
2023/09/30 07:01:57;;;;;;;15.20;4.85;;;;;;;13.61;100.00;101700.72;5027681;28;20161;-58
2023/09/30 07:04:26;;;;;;;21.23;5.55;;;;;;;13.71;100.00;101712.50;5036365;28;20164;-56
2023/09/30 07:06:53;;;;;;;25.10;5.75;;;;;;;13.72;100.00;101698.31;5031949;28;20144;-60
2023/09/30 07:09:21;;;;;;;14.93;4.45;;;;;;;13.83;100.00;101701.25;5037406;28;20080;-60
2023/09/30 07:11:49;;;;;;;17.75;5.15;;;;;;;13.85;100.00;101707.31;5036709;28;20037;-61
2023/09/30 07:14:16;;;;;;;18.92;4.80;;;;;;;13.84;100.00;101710.91;5034505;28;20091;-60
2023/09/30 07:16:44;;;;;;;22.48;4.32;;;;;;;13.98;100.00;101717.22;5023051;28;20054;-59
2023/09/30 07:19:12;;;;;;;17.27;4.82;;;;;;;14.16;100.00;101726.78;5032820;28;20062;-59
2023/09/30 07:21:39;;;;;;;19.00;4.95;;;;;;;14.29;100.00;101724.28;5027866;28;20072;-60
2023/09/30 07:24:07;;;;;;;15.90;4.75;;;;;;;14.38;100.00;101726.41;5038027;28;20604;-59
2023/09/30 07:26:34;;;;;;;22.70;5.80;;;;;;;14.39;100.00;101736.06;5034670;28;20068;-59
2023/09/30 07:29:01;;;;;;;14.82;4.63;;;;;;;14.41;100.00;101739.50;5027097;28;21298;-60
2023/09/30 07:31:29;;;;;;;18.42;5.10;;;;;;;14.29;100.00;101729.59;5030625;28;20045;-60
2023/09/30 07:33:56;;;;;;;16.30;5.45;;;;;;;14.28;100.00;101733.19;5031218;28;20452;-60
2023/09/30 07:36:24;;;;;;;17.30;4.82;;;;;;;14.25;100.00;101736.84;5025446;28;20124;-60
2023/09/30 07:38:52;;;;;;;20.90;5.20;;;;;;;14.18;100.00;101736.34;5029166;28;20086;-61
2023/09/30 07:41:20;;;;;;;18.65;4.10;;;;;;;14.25;100.00;101744.78;5018965;28;20041;-61
2023/09/30 07:43:47;;;;;;;30.75;5.65;;;;;;;14.29;100.00;101746.34;5025435;28;20475;-60
2023/09/30 07:46:15;;;;;;;16.90;5.20;;;;;;;14.19;100.00;101750.44;5030432;28;20529;-58
2023/09/30 07:48:43;;;;;;;17.15;4.25;;;;;;;14.37;100.00;101753.84;5023917;28;20123;-61
2023/09/30 07:51:13;;;;;;;14.35;4.30;;;;;;;14.46;100.00;101750.69;5027149;28;20080;-60
2023/09/30 07:53:40;;;;;;;20.00;4.68;;;;;;;14.51;99.65;101747.78;5036641;28;20053;-60
2023/09/30 07:56:08;;;;;;;20.52;5.15;;;;;;;14.55;99.78;101755.47;5023149;28;20053;-61
2023/09/30 07:58:35;;;;;;;21.67;5.18;;;;;;;14.65;99.25;101759.31;5027121;28;20057;-60
2023/09/30 08:01:04;;;;;;;21.88;4.40;;;;;;;14.65;97.97;101764.59;5026981;28;20088;-61
2023/09/30 08:03:31;;;;;;;20.50;4.88;;;;;;;14.52;98.82;101771.53;5025514;28;20049;-61
2023/09/30 08:05:59;;;;;;;16.55;4.28;;;;;;;14.62;99.02;101767.41;5028961;28;20103;-61
2023/09/30 08:08:26;;;;;;;23.75;4.93;;;;;;;14.62;98.37;101764.75;5025942;28;20245;-58
2023/09/30 08:10:55;;;;;;;19.27;4.68;;;;;;;14.67;98.08;101778.59;5030843;28;20720;-59
2023/09/30 08:13:23;;;;;;;20.52;4.53;;;;;;;14.74;97.92;101772.97;5025717;28;20065;-58
2023/09/30 08:15:51;;;;;;;19.98;5.15;;;;;;;14.71;97.37;101774.00;5024703;28;20057;-59
2023/09/30 08:18:18;;;;;;;17.33;5.03;;;;;;;14.78;97.56;101777.16;5028253;28;20049;-60
2023/09/30 08:20:46;;;;;;;24.80;5.55;;;;;;;14.99;96.28;101780.31;5026514;28;20046;-61
2023/09/30 08:23:13;;;;;;;17.67;4.35;;;;;;;15.11;95.34;101780.44;5039595;28;20092;-59
2023/09/30 08:25:41;;;;;;;15.15;5.53;;;;;;;15.23;94.11;101793.94;5027277;28;20050;-60
2023/09/30 08:28:09;;;;;;;18.20;4.93;;;;;;;15.24;93.50;101782.38;5038234;28;20055;-60
2023/09/30 08:30:37;;;;;;;18.25;5.18;;;;;;;15.24;93.27;101791.19;5024181;28;20455;-61
2023/09/30 08:33:05;;;;;;;16.92;4.35;;;;;;;15.53;91.90;101786.75;5026397;28;20045;-60
2023/09/30 08:35:37;;;;;;;20.35;4.63;;;;;;;15.79;91.49;101781.69;5023132;28;20404;-61
2023/09/30 08:38:05;;;;;;;17.20;4.47;;;;;;;15.85;89.71;101781.28;5030378;28;20141;-60
2023/09/30 08:40:32;;;;;;;17.48;4.05;;;;;;;16.01;88.86;101783.84;5027169;28;20081;-60
2023/09/30 08:42:59;;;;;;;18.00;3.70;;;;;;;16.16;87.54;101785.50;5032680;28;20203;-61
2023/09/30 08:45:31;;;;;;;16.75;3.88;;;;;;;16.00;87.38;101788.31;5024290;28;20115;-61
2023/09/30 08:48:05;;;;;;;12.15;3.70;;;;;;;15.81;88.26;101788.63;5037041;28;20432;-61
2023/09/30 08:50:33;;;;;;;14.32;4.25;;;;;;;15.95;88.28;101785.09;5022223;28;22534;-60
2023/09/30 08:53:03;;;;;;;19.98;4.78;;;;;;;15.92;87.25;101782.63;5025771;28;20061;-60
2023/09/30 08:55:33;;;;;;;19.38;5.50;;;;;;;15.89;88.01;101780.16;5022282;28;20132;-64
2023/09/30 08:58:01;;;;;;;13.45;3.95;;;;;;;15.88;87.98;101781.09;5025859;28;20455;-61
2023/09/30 09:00:29;;;;;;;19.67;4.78;;;;;;;15.78;88.38;101788.81;5019334;28;20100;-58
2023/09/30 09:02:56;;;;;;;19.52;3.97;;;;;;;15.76;89.03;101789.81;5023316;28;20067;-59
2023/09/30 09:05:24;;;;;;;16.95;3.92;;;;;;;15.95;88.95;101793.06;5021665;28;20049;-59
2023/09/30 09:07:51;;;;;;;12.45;3.83;;;;;;;16.27;87.06;101784.84;5025054;28;20052;-60
2023/09/30 09:10:19;;;;;;;14.40;4.10;;;;;;;16.48;84.47;101787.91;5023195;28;20099;-59
2023/09/30 09:12:56;;;;;;;20.80;4.05;;;;;;;16.43;84.04;101775.75;5020871;28;20045;-60
2023/09/30 09:15:25;;;;;;;15.85;3.97;;;;;;;16.71;83.56;101782.78;5023174;28;20080;-59
2023/09/30 09:17:53;;;;;;;14.00;3.88;;;;;;;17.03;82.26;101785.13;5020697;28;20083;-59
2023/09/30 09:20:24;;;;;;;15.90;4.85;;;;;;;16.78;81.84;101779.75;5021329;28;20443;-58
2023/09/30 09:22:55;;;;;;;17.77;4.53;;;;;;;17.22;80.92;101779.41;5021563;28;20056;-59
2023/09/30 09:25:23;;;;;;;17.80;5.05;;;;;;;17.32;78.96;101780.47;5022951;28;20049;-59
2023/09/30 09:27:51;;;;;;;14.60;3.55;;;;;;;17.41;79.64;101777.19;5023984;28;20180;-59
2023/09/30 09:30:23;;;;;;;20.45;4.47;;;;;;;17.59;78.12;101780.38;5016507;28;20077;-59
2023/09/30 09:33:01;;;;;;;12.10;3.28;;;;;;;17.83;75.40;101790.28;5021329;28;20064;-59
2023/09/30 09:35:32;;;;;;;12.45;3.60;;;;;;;17.89;75.48;101789.84;5023537;28;20050;-59
2023/09/30 09:38:02;;;;;;;8.93;2.92;;;;;;;18.16;74.92;101782.53;5025252;28;20077;-57
2023/09/30 09:40:35;;;;;;;16.45;3.83;;;;;;;18.00;74.51;101787.25;5022139;28;20042;-60
2023/09/30 09:43:05;;;;;;;12.98;4.28;;;;;;;18.00;74.65;101779.28;5022142;28;20067;-59
2023/09/30 09:45:34;;;;;;;12.82;3.95;;;;;;;18.18;73.40;101793.09;5024162;28;20099;-59
2023/09/30 09:48:02;;;;;;;19.25;4.50;;;;;;;18.03;73.67;101788.88;5020195;28;20080;-60
2023/09/30 09:50:29;;;;;;;14.18;3.55;;;;;;;18.04;73.64;101785.22;5022316;28;20053;-59
2023/09/30 09:52:58;;;;;;;13.00;3.20;;;;;;;18.12;73.22;101786.38;5023122;28;20049;-61
2023/09/30 09:55:27;;;;;;;15.02;3.85;;;;;;;17.94;72.82;101796.56;5023380;28;21125;-60
2023/09/30 09:57:54;;;;;;;13.30;3.08;;;;;;;17.72;72.85;101783.03;5025791;28;20080;-57
2023/09/30 10:00:23;;;;;;;15.57;3.58;;;;;;;18.17;72.15;101788.72;5018974;28;20107;-59
2023/09/30 10:02:51;;;;;;;16.73;3.65;;;;;;;18.36;71.14;101788.22;5019192;28;20620;-60
2023/09/30 10:05:20;;;;;;;14.02;3.53;;;;;;;18.77;69.78;101790.50;5023107;28;20633;-61
2023/09/30 10:07:57;;;;;;;11.63;2.97;;;;;;;18.95;67.93;101796.28;5020035;28;20165;-62
2023/09/30 10:10:25;;;;;;;11.27;3.05;;;;;;;18.89;67.40;101788.75;5024351;28;20072;-62
2023/09/30 10:12:52;;;;;;;11.48;3.33;;;;;;;18.91;66.60;101790.34;5025685;28;20045;-61
2023/09/30 10:15:25;;;;;;;11.85;3.65;;;;;;;19.03;65.21;101777.88;5028840;28;20591;-59
2023/09/30 10:18:09;;;;;;;15.45;3.50;;;;;;;18.91;66.50;101778.81;5023779;28;20484;-60
2023/09/30 10:20:48;;;;;;;8.75;2.75;;;;;;;18.93;64.36;101774.22;5028645;28;20140;-60
2023/09/30 10:23:27;;;;;;;7.03;2.88;;;;;;;19.03;64.41;101793.03;5026316;28;20056;-57
2023/09/30 10:26:15;;;;;;;16.38;3.20;;;;;;;18.67;65.03;101793.00;5029742;28;20553;-59
2023/09/30 10:28:49;;;;;;;7.40;2.72;;;;;;;18.89;64.53;101789.59;5027972;28;20141;-58
2023/09/30 10:31:25;;;;;;;12.55;3.63;;;;;;;18.66;64.66;101790.44;5025170;28;20088;-61
2023/09/30 10:33:59;;;;;;;14.75;3.30;;;;;;;18.70;63.69;101798.16;5024016;28;20061;-60
2023/09/30 10:36:34;;;;;;;26.75;2.92;;;;;;;18.62;62.76;101800.50;5029267;28;20114;-60
2023/09/30 10:39:02;;;;;;;16.55;3.38;;;;;;;18.96;61.85;101787.34;5026148;28;20133;-59
2023/09/30 10:41:39;;;;;;;9.77;3.53;;;;;;;19.44;60.77;101798.72;5022097;28;20083;-59
2023/09/30 10:44:27;;;;;;;13.45;3.03;;;;;;;19.65;60.06;101785.53;5025862;28;20538;-58
2023/09/30 10:47:18;;;;;;;10.40;2.88;;;;;;;19.52;60.29;101797.28;5019491;28;20511;-62
2023/09/30 10:49:46;;;;;;;10.20;2.75;;;;;;;19.89;59.09;101798.78;5026675;28;20611;-59
2023/09/30 10:52:24;;;;;;;22.35;3.53;;;;;;;20.34;57.41;101800.53;5025424;28;20056;-60
2023/09/30 10:54:52;;;;;;;12.13;2.65;;;;;;;20.37;57.10;101802.97;5028319;28;20288;-60
2023/09/30 10:57:28;;;;;;;6.80;2.40;;;;;;;20.64;56.57;101800.72;5031455;28;20091;-61
2023/09/30 11:00:11;;;;;;;9.85;2.70;;;;;;;20.92;55.32;101801.09;5035036;28;20064;-61
2023/09/30 11:02:51;;;;;;;6.65;1.90;;;;;;;20.59;55.20;101802.94;5033840;28;20136;-61
2023/09/30 11:05:23;;;;;;;15.93;2.70;;;;;;;20.54;55.85;101799.81;5016832;28;20116;-59
2023/09/30 11:08:10;;;;;;;13.32;3.00;;;;;;;20.52;55.10;101801.72;5022386;28;20168;-59
2023/09/30 11:10:37;;;;;;;11.23;3.30;;;;;;;20.39;55.48;101803.69;5023553;28;20415;-59
2023/09/30 11:13:05;;;;;;;9.63;2.83;;;;;;;20.54;56.01;101794.44;5027719;28;20041;-60
2023/09/30 11:15:32;;;;;;;10.65;2.33;;;;;;;21.00;54.44;101790.59;5030467;28;20065;-61
2023/09/30 11:18:13;;;;;;;11.00;3.40;;;;;;;21.44;53.70;101786.84;5024575;28;20369;-59
2023/09/30 11:20:44;;;;;;;9.85;2.70;;;;;;;22.02;52.11;101794.28;5023181;28;20046;-60
2023/09/30 11:23:12;;;;;;;12.32;2.92;;;;;;;22.12;51.61;101783.59;5022952;28;20581;-59